Time;durP1;ratioP1;P1;durP2;ratioP2;P2;SDS_P1;SDS_P2;PMS_P1;PMS_P2;Temp;Humidity;BMP_temperature;BMP_pressure;BME280_temperature;BME280_humidity;BME280_pressure;Samples;Min_cycle;Max_cycle;Signal;HPM_P1;HPM_P2
2023/12/27 00:02:30;;;;;;;5.70;1.00;;;;;;;5.08;100.00;100382.10;216755;1295;140461;-88
2023/12/27 00:07:30;;;;;;;4.60;0.80;;;;;;;4.98;100.00;100395.67;217308;1295;140147;-88
2023/12/27 00:12:30;;;;;;;6.40;1.00;;;;;;;4.89;100.00;100402.98;216741;1295;142475;-88
2023/12/27 00:17:31;;;;;;;5.60;1.20;;;;;;;4.81;100.00;100413.01;217303;1295;140323;-88
2023/12/27 00:22:31;;;;;;;6.20;1.00;;;;;;;4.75;100.00;100428.67;216675;1295;139932;-88
2023/12/27 00:27:32;;;;;;;5.30;1.20;;;;;;;4.69;100.00;100438.91;217395;1295;96395;-88
2023/12/27 00:32:32;;;;;;;10.60;1.20;;;;;;;4.61;100.00;100454.23;216826;1295;140219;-89
2023/12/27 00:37:32;;;;;;;4.90;0.90;;;;;;;4.54;100.00;100469.70;217290;1295;139656;-88
2023/12/27 00:42:33;;;;;;;5.30;1.00;;;;;;;4.46;100.00;100475.16;216777;1295;139757;-87
2023/12/27 00:47:33;;;;;;;6.60;1.10;;;;;;;4.40;100.00;100490.15;217227;1295;139675;-88
2023/12/27 00:52:34;;;;;;;7.70;1.30;;;;;;;4.38;100.00;100493.96;217066;1293;139932;-88
2023/12/27 00:57:34;;;;;;;8.30;1.20;;;;;;;4.38;100.00;100501.13;217825;1293;96261;-89
2023/12/27 01:02:35;;;;;;;3.70;0.90;;;;;;;4.39;100.00;100504.52;216967;1293;139461;-87
2023/12/27 01:07:35;;;;;;;7.70;1.00;;;;;;;4.41;100.00;100504.88;217527;1293;139506;-91
2023/12/27 01:12:36;;;;;;;8.00;1.30;;;;;;;4.44;100.00;100516.66;217145;1293;140097;-87
2023/12/27 01:17:36;;;;;;;7.00;1.60;;;;;;;4.45;100.00;100523.96;217685;1293;139618;-88
2023/12/27 01:22:37;;;;;;;7.10;1.30;;;;;;;4.47;100.00;100525.29;217147;1293;139816;-90
2023/12/27 01:27:37;;;;;;;10.20;1.40;;;;;;;4.48;100.00;100532.17;217785;1293;96054;-88
2023/12/27 01:32:38;;;;;;;7.00;1.60;;;;;;;4.49;100.00;100546.65;217053;1293;140706;-88
2023/12/27 01:37:38;;;;;;;5.80;1.70;;;;;;;4.49;100.00;100560.00;217665;1293;139252;-89
2023/12/27 01:42:39;;;;;;;5.70;1.20;;;;;;;4.50;100.00;100573.42;217142;1293;139887;-89
2023/12/27 01:47:41;;;;;;;6.60;1.40;;;;;;;4.50;100.00;100581.38;217691;1293;139130;-88
2023/12/27 01:52:42;;;;;;;9.10;1.10;;;;;;;4.51;100.00;100591.52;216892;1295;140701;-89
2023/12/27 01:57:43;;;;;;;11.40;2.20;;;;;;;4.52;100.00;100592.66;217603;1294;104476;-90
2023/12/27 02:02:44;;;;;;;4.30;0.90;;;;;;;4.54;100.00;100592.87;217160;1293;140017;-91
2023/12/27 02:07:45;;;;;;;7.60;1.70;;;;;;;4.54;100.00;100592.79;217511;1293;140082;-92
2023/12/27 02:12:46;;;;;;;9.90;1.40;;;;;;;4.51;100.00;100600.71;217039;1293;139753;-90
2023/12/27 02:17:47;;;;;;;4.80;1.10;;;;;;;4.47;100.00;100608.19;217505;1293;138725;-90
2023/12/27 02:22:50;;;;;;;5.50;1.60;;;;;;;4.44;100.00;100606.11;217060;1293;139720;-90
2023/12/27 02:27:50;;;;;;;12.90;2.10;;;;;;;4.41;100.00;100614.72;217787;1293;96724;-90
2023/12/27 02:32:51;;;;;;;9.60;1.20;;;;;;;4.39;100.00;100623.67;217184;1293;140300;-90
2023/12/27 02:37:51;;;;;;;8.90;1.20;;;;;;;4.38;100.00;100626.48;217582;1293;139192;-90
2023/12/27 02:42:52;;;;;;;9.90;1.60;;;;;;;4.37;100.00;100635.84;217139;1293;140190;-90
2023/12/27 02:47:52;;;;;;;4.30;1.30;;;;;;;4.37;100.00;100652.56;217669;1293;139624;-90
2023/12/27 02:52:52;;;;;;;7.20;1.40;;;;;;;4.38;100.00;100657.17;216931;1293;139633;-88
2023/12/27 02:57:53;;;;;;;9.80;1.50;;;;;;;4.39;100.00;100656.60;217780;1293;97086;-88
2023/12/27 03:02:53;;;;;;;7.00;2.90;;;;;;;4.39;100.00;100654.93;217117;1293;139627;-89
2023/12/27 03:07:54;;;;;;;8.30;1.70;;;;;;;4.40;100.00;100662.19;217494;1293;139755;-88
2023/12/27 03:12:55;;;;;;;10.60;1.60;;;;;;;4.42;100.00;100660.85;217115;1293;140282;-88
2023/12/27 03:17:55;;;;;;;16.50;1.80;;;;;;;4.43;100.00;100668.20;217668;1293;138900;-89
2023/12/27 03:22:56;;;;;;;7.00;1.60;;;;;;;4.44;100.00;100669.97;216996;1293;140700;-88
2023/12/27 03:27:56;;;;;;;6.80;1.60;;;;;;;4.45;100.00;100678.19;217674;1293;95938;-89
2023/12/27 03:32:56;;;;;;;16.90;1.70;;;;;;;4.46;100.00;100682.35;217161;1293;140111;-90
2023/12/27 03:37:57;;;;;;;9.20;1.60;;;;;;;4.46;100.00;100687.96;217569;1293;139018;-89
2023/12/27 03:42:57;;;;;;;11.00;1.60;;;;;;;4.47;100.00;100691.65;217141;1293;140122;-89
2023/12/27 03:47:58;;;;;;;10.80;1.80;;;;;;;4.47;100.00;100687.55;217641;1293;139070;-89
2023/12/27 03:52:59;;;;;;;12.60;1.90;;;;;;;4.47;100.00;100683.34;217109;1293;140413;-91
2023/12/27 03:57:59;;;;;;;6.50;1.50;;;;;;;4.47;100.00;100684.58;217798;1293;95888;-89
2023/12/27 04:02:59;;;;;;;9.10;1.80;;;;;;;4.48;100.00;100690.36;217076;1293;140268;-92
2023/12/27 04:08:00;;;;;;;9.50;1.70;;;;;;;4.49;100.00;100699.11;217507;1293;139005;-88
2023/12/27 04:13:00;;;;;;;8.20;2.30;;;;;;;4.49;100.00;100703.50;217159;1293;140041;-90
2023/12/27 04:18:01;;;;;;;13.50;1.60;;;;;;;4.50;100.00;100717.31;217669;1293;138825;-90
2023/12/27 04:23:01;;;;;;;6.40;1.40;;;;;;;4.51;100.00;100730.64;217000;1293;142134;-90
2023/12/27 04:28:02;;;;;;;8.70;1.30;;;;;;;4.51;100.00;100732.91;217717;1293;108345;-89
2023/12/27 04:33:03;;;;;;;13.00;1.90;;;;;;;4.51;100.00;100734.27;217186;1293;139726;-89
2023/12/27 04:38:03;;;;;;;9.90;2.00;;;;;;;4.51;100.00;100736.21;217665;1293;138995;-90
2023/12/27 04:43:04;;;;;;;14.00;2.80;;;;;;;4.51;100.00;100741.95;216984;1293;142237;-90
2023/12/27 04:48:05;;;;;;;14.60;3.10;;;;;;;4.51;100.00;100758.63;217662;1293;140048;-87
2023/12/27 04:53:06;;;;;;;10.40;2.70;;;;;;;4.51;100.00;100770.08;217140;1293;139962;-89
2023/12/27 04:58:06;;;;;;;12.10;3.00;;;;;;;4.50;100.00;100774.16;217608;1293;96203;-88
2023/12/27 05:03:07;;;;;;;5.10;1.70;;;;;;;4.48;100.00;100776.09;217061;1293;139985;-89
2023/12/27 05:08:08;;;;;;;11.30;1.60;;;;;;;4.46;100.00;100777.67;217633;1293;138898;-88
2023/12/27 05:13:08;;;;;;;13.90;1.70;;;;;;;4.45;100.00;100784.80;217076;1293;139904;-88
2023/12/27 05:18:09;;;;;;;9.70;1.60;;;;;;;4.44;100.00;100786.98;217663;1293;140276;-88
2023/12/27 05:23:09;;;;;;;10.60;2.30;;;;;;;4.41;100.00;100795.59;217122;1293;139500;-88
2023/12/27 05:28:09;;;;;;;8.90;1.80;;;;;;;4.38;100.00;100806.69;217768;1293;96797;-88
2023/12/27 05:33:10;;;;;;;7.30;1.60;;;;;;;4.35;100.00;100807.70;217114;1293;139043;-88
2023/12/27 05:38:11;;;;;;;13.10;2.00;;;;;;;4.32;100.00;100813.09;217686;1293;138769;-90
2023/12/27 05:43:11;;;;;;;12.70;2.20;;;;;;;4.27;100.00;100828.40;217070;1293;139936;-89
2023/12/27 05:48:12;;;;;;;13.50;2.30;;;;;;;4.24;100.00;100838.40;217682;1293;139548;-89
2023/12/27 05:53:12;;;;;;;8.70;2.00;;;;;;;4.23;100.00;100837.95;217154;1293;140573;-88
2023/12/27 05:58:12;;;;;;;9.40;1.90;;;;;;;4.21;100.00;100837.86;217560;1293;96633;-88
2023/12/27 06:03:13;;;;;;;8.40;2.00;;;;;;;4.20;100.00;100844.11;217101;1293;139829;-88
2023/12/27 06:08:15;;;;;;;9.30;2.00;;;;;;;4.19;100.00;100848.02;217491;1293;138806;-87
2023/12/27 06:13:16;;;;;;;11.20;1.70;;;;;;;4.16;100.00;100851.72;216951;1293;139570;-88
2023/12/27 06:18:16;;;;;;;9.00;1.70;;;;;;;4.15;100.00;100850.04;217581;1293;139025;-88
2023/12/27 06:23:17;;;;;;;8.50;1.80;;;;;;;4.15;100.00;100860.09;217125;1293;139146;-87
2023/12/27 06:28:17;;;;;;;11.80;1.90;;;;;;;4.14;100.00;100865.11;217702;1293;98923;-89
2023/12/27 06:33:17;;;;;;;13.70;2.60;;;;;;;4.13;100.00;100869.06;217105;1293;139606;-88
2023/12/27 06:38:18;;;;;;;12.50;2.20;;;;;;;4.13;100.00;100880.19;217501;1293;139081;-90
2023/12/27 06:43:19;;;;;;;13.80;2.10;;;;;;;4.13;100.00;100882.98;217096;1293;140271;-88
2023/12/27 06:48:20;;;;;;;9.60;1.90;;;;;;;4.14;100.00;100892.43;217494;1293;138988;-89
2023/12/27 06:53:20;;;;;;;12.50;2.30;;;;;;;4.16;100.00;100898.41;217097;1293;140011;-88
2023/12/27 06:58:21;;;;;;;15.10;2.60;;;;;;;4.16;100.00;100894.14;217593;1293;96101;-88
2023/12/27 07:03:21;;;;;;;8.60;2.30;;;;;;;4.17;100.00;100909.76;216765;1293;139871;-90
2023/12/27 07:08:22;;;;;;;16.00;3.10;;;;;;;4.18;100.00;100914.62;217633;1294;139202;-89
2023/12/27 07:13:22;;;;;;;13.20;2.80;;;;;;;4.19;100.00;100925.70;217113;1293;141315;-91
2023/12/27 07:18:22;;;;;;;23.80;2.60;;;;;;;4.19;100.00;100937.20;217370;1293;139850;-89
2023/12/27 07:23:23;;;;;;;13.00;2.60;;;;;;;4.19;100.00;100948.53;217021;1293;140011;-91
2023/12/27 07:28:23;;;;;;;9.30;1.70;;;;;;;4.18;100.00;100950.67;217694;1293;95873;-88
2023/12/27 07:33:24;;;;;;;15.90;2.70;;;;;;;4.18;100.00;100972.80;216897;1296;139755;-88
2023/12/27 07:38:26;;;;;;;10.80;2.60;;;;;;;4.18;100.00;100979.92;217663;1293;139004;-91
2023/12/27 07:43:27;;;;;;;9.40;2.30;;;;;;;4.19;100.00;100990.58;216895;1293;140035;-88
2023/12/27 07:48:28;;;;;;;16.80;2.20;;;;;;;4.22;100.00;100993.17;217583;1293;139599;-87
2023/12/27 07:53:29;;;;;;;11.00;2.60;;;;;;;4.24;100.00;101007.49;217000;1293;139948;-87
2023/12/27 07:58:29;;;;;;;12.10;2.30;;;;;;;4.26;100.00;101016.20;217637;1293;139554;-88
2023/12/27 08:03:30;;;;;;;12.70;2.70;;;;;;;4.28;100.00;101021.73;217234;1293;139950;-88
2023/12/27 08:08:30;;;;;;;16.70;3.00;;;;;;;4.30;100.00;101031.16;217652;1293;138702;-88
2023/12/27 08:13:32;;;;;;;12.40;2.70;;;;;;;4.32;100.00;101038.50;216941;1293;140531;-89
2023/12/27 08:18:32;;;;;;;14.40;2.60;;;;;;;4.34;100.00;101039.49;217378;1294;139030;-89
2023/12/27 08:23:33;;;;;;;15.50;2.50;;;;;;;4.37;100.00;101036.29;217101;1293;139925;-86
2023/12/27 08:28:34;;;;;;;13.30;2.50;;;;;;;4.39;100.00;101041.61;217611;1294;138944;-89
2023/12/27 08:33:38;;;;;;;11.20;2.70;;;;;;;4.43;100.00;101048.63;217231;1295;140945;-88
2023/12/27 08:38:56;;;;;;;13.20;2.70;;;;;;;4.46;100.00;101055.88;217084;1296;139115;-89
2023/12/27 08:43:59;;;;;;;16.40;3.20;;;;;;;4.49;100.00;101063.57;216427;1293;139700;-88
2023/12/27 08:48:59;;;;;;;9.90;2.30;;;;;;;4.54;100.00;101070.88;216928;1293;139031;-90
2023/12/27 08:54:00;;;;;;;17.10;3.60;;;;;;;4.58;100.00;101069.89;216625;1293;139771;-88
2023/12/27 08:59:00;;;;;;;13.70;4.60;;;;;;;4.62;100.00;101069.92;217370;1295;139320;-88
2023/12/27 09:04:01;;;;;;;13.00;3.30;;;;;;;4.65;100.00;101081.73;217127;1297;140156;-89
2023/12/27 09:09:02;;;;;;;14.00;2.90;;;;;;;4.70;100.00;101088.67;217596;1294;140900;-88
2023/12/27 09:14:05;;;;;;;15.70;2.60;;;;;;;4.76;100.00;101100.38;217177;1293;140445;-87
2023/12/27 09:19:05;;;;;;;18.10;3.40;;;;;;;4.80;100.00;101103.14;217688;1293;138981;-88
2023/12/27 09:24:06;;;;;;;9.70;2.80;;;;;;;4.83;100.00;101099.52;217079;1293;140008;-87
2023/12/27 09:29:09;;;;;;;11.40;2.50;;;;;;;4.88;100.00;101095.20;217652;1295;139465;-88
2023/12/27 09:34:18;;;;;;;16.40;3.00;;;;;;;4.94;100.00;101094.10;218314;1282;635981;-87
2023/12/27 09:39:19;;;;;;;17.40;3.40;;;;;;;4.95;100.00;101092.11;217531;1284;138074;-87
2023/12/27 09:44:22;;;;;;;14.60;3.00;;;;;;;5.00;100.00;101087.96;216748;1285;168822;-86
2023/12/27 09:49:23;;;;;;;16.40;3.10;;;;;;;5.04;100.00;101087.35;218866;1282;138342;-87
2023/12/27 09:54:24;;;;;;;17.40;2.80;;;;;;;5.07;100.00;101091.53;218098;1285;138663;-89
2023/12/27 09:59:28;;;;;;;12.50;2.60;;;;;;;5.10;100.00;101099.09;218672;1282;138024;-88
2023/12/27 10:04:50;;;;;;;15.70;3.60;;;;;;;5.11;100.00;101102.00;218221;1284;139383;-89
2023/12/27 10:09:50;;;;;;;14.70;3.50;;;;;;;5.15;100.00;101109.51;218369;1283;139144;-89
2023/12/27 10:14:52;;;;;;;12.90;3.40;;;;;;;5.21;100.00;101101.98;218820;1283;137673;-89
2023/12/27 10:19:52;;;;;;;13.00;3.60;;;;;;;5.27;100.00;101101.77;218143;1282;138945;-88
2023/12/27 10:24:53;;;;;;;10.60;2.60;;;;;;;5.30;100.00;101101.60;218913;1282;138480;-88
2023/12/27 10:29:53;;;;;;;15.80;2.80;;;;;;;5.34;100.00;101103.58;218236;1282;138954;-88
2023/12/27 10:34:54;;;;;;;14.90;3.40;;;;;;;5.36;100.00;101104.34;218833;1282;138519;-89
2023/12/27 10:39:56;;;;;;;15.40;3.30;;;;;;;5.39;100.00;101108.15;218489;1284;139958;-89
2023/12/27 10:44:56;;;;;;;12.00;3.30;;;;;;;5.42;100.00;101113.09;218530;1283;139412;-89
2023/12/27 10:50:01;;;;;;;12.00;4.20;;;;;;;5.38;100.00;101124.23;218373;1284;139218;-89
2023/12/27 10:55:03;;;;;;;16.70;3.50;;;;;;;5.39;100.00;101128.27;218590;1282;138228;-90
2023/12/27 11:00:08;;;;;;;16.20;3.50;;;;;;;5.43;100.00;101129.50;218283;1282;138923;-90
2023/12/27 11:05:10;;;;;;;9.10;2.50;;;;;;;5.43;100.00;101121.73;218919;1282;139198;-89
2023/12/27 11:10:14;;;;;;;10.90;2.60;;;;;;;5.41;100.00;101123.96;218354;1282;139497;-89
2023/12/27 11:15:16;;;;;;;17.00;2.40;;;;;;;5.39;100.00;101122.64;218565;1283;138483;-89
2023/12/27 11:20:19;;;;;;;17.00;2.70;;;;;;;5.39;100.00;101113.77;217807;1284;139200;-92
2023/12/27 11:25:20;;;;;;;14.70;2.80;;;;;;;5.38;100.00;101113.72;216628;1286;138551;-89
2023/12/27 11:30:25;;;;;;;16.50;2.60;;;;;;;5.38;100.00;101118.08;218058;1282;139175;-91
2023/12/27 11:35:33;;;;;;;15.20;3.20;;;;;;;5.36;100.00;101117.21;219090;1283;138291;-90
2023/12/27 11:40:34;;;;;;;11.30;2.80;;;;;;;5.35;100.00;101116.94;218462;1283;138956;-89
2023/12/27 11:46:03;;;;;;;15.70;2.70;;;;;;;5.40;100.00;101116.44;218809;1282;137741;-88
2023/12/27 11:51:34;;;;;;;13.80;2.90;;;;;;;5.39;100.00;101108.15;218377;1282;139179;-91
2023/12/27 11:56:36;;;;;;;8.50;2.60;;;;;;;5.41;100.00;101109.49;218768;1283;138434;-90
2023/12/27 12:01:39;;;;;;;12.40;2.80;;;;;;;5.46;100.00;101108.04;218468;1282;139351;-90
2023/12/27 12:07:01;;;;;;;13.80;3.10;;;;;;;5.47;100.00;101113.40;219007;1283;139251;-90
2023/12/27 12:12:20;;;;;;;16.60;2.80;;;;;;;5.50;100.00;101104.89;218319;1284;139397;-89
2023/12/27 12:17:21;;;;;;;10.70;2.20;;;;;;;5.56;100.00;101102.23;218555;1283;138376;-91
2023/12/27 12:22:22;;;;;;;12.10;3.10;;;;;;;5.56;100.00;101103.73;218265;1284;139611;-90
2023/12/27 12:27:23;;;;;;;14.90;3.10;;;;;;;5.59;100.00;101106.73;218957;1282;138537;-91
2023/12/27 12:32:25;;;;;;;17.70;3.10;;;;;;;5.66;100.00;101104.05;218347;1282;139509;-89
2023/12/27 12:37:25;;;;;;;10.20;2.50;;;;;;;5.74;100.00;101091.98;218856;1283;139108;-90
2023/12/27 12:42:26;;;;;;;16.80;2.60;;;;;;;5.79;100.00;101084.84;218166;1284;139260;-89
2023/12/27 12:47:26;;;;;;;16.40;3.20;;;;;;;5.78;100.00;101085.21;218562;1282;138872;-90
2023/12/27 12:52:27;;;;;;;12.90;2.80;;;;;;;5.77;100.00;101084.85;218439;1282;139069;-89
2023/12/27 12:57:31;;;;;;;15.40;3.20;;;;;;;5.73;100.00;101084.83;218758;1283;137819;-90
2023/12/27 13:02:31;;;;;;;13.20;2.50;;;;;;;5.70;100.00;101090.66;218317;1282;139463;-89
2023/12/27 13:07:32;;;;;;;12.10;2.50;;;;;;;5.70;100.00;101083.63;217347;1282;138221;-88
2023/12/27 13:12:33;;;;;;;10.00;2.50;;;;;;;5.68;100.00;101086.27;217324;1282;139255;-89
2023/12/27 13:17:34;;;;;;;12.70;3.70;;;;;;;5.61;100.00;101086.38;218797;1285;138589;-89
2023/12/27 13:22:34;;;;;;;11.10;2.50;;;;;;;5.54;100.00;101082.41;218121;1283;139508;-88
2023/12/27 13:27:34;;;;;;;10.90;2.60;;;;;;;5.47;100.00;101083.89;218583;1284;138067;-88
2023/12/27 13:32:35;;;;;;;12.60;3.00;;;;;;;5.43;100.00;101088.65;218159;1282;139475;-88
2023/12/27 13:37:36;;;;;;;17.90;4.80;;;;;;;5.38;100.00;101088.90;219052;1282;138879;-89
2023/12/27 13:42:37;;;;;;;12.40;3.10;;;;;;;5.29;100.00;101087.77;218444;1282;139385;-90
2023/12/27 13:47:37;;;;;;;13.90;3.40;;;;;;;5.21;100.00;101087.50;219109;1282;138933;-90
2023/12/27 13:52:37;;;;;;;13.80;3.30;;;;;;;5.14;100.00;101088.80;218303;1282;139722;-87
2023/12/27 13:57:38;;;;;;;14.20;4.10;;;;;;;5.06;100.00;101088.36;219107;1282;95139;-88
2023/12/27 14:02:39;;;;;;;17.40;3.90;;;;;;;4.96;100.00;101088.33;218017;1283;139425;-88
2023/12/27 14:07:39;;;;;;;15.80;3.50;;;;;;;4.88;100.00;101087.56;218815;1284;138287;-86
2023/12/27 14:12:43;;;;;;;14.00;3.40;;;;;;;4.79;100.00;101081.58;218304;1285;139736;-86
2023/12/27 14:17:45;;;;;;;16.90;3.40;;;;;;;4.70;100.00;101087.88;218558;1282;138723;-86
2023/12/27 14:22:46;;;;;;;14.60;3.50;;;;;;;4.62;100.00;101084.16;218349;1282;140999;-85
2023/12/27 14:27:46;;;;;;;18.60;4.60;;;;;;;4.53;100.00;101080.56;219081;1282;95401;-88
2023/12/27 14:32:47;;;;;;;22.30;6.40;;;;;;;4.44;100.00;101071.05;218460;1282;140625;-89
2023/12/27 14:37:48;;;;;;;18.00;6.30;;;;;;;4.35;100.00;101069.70;219034;1282;138582;-89
2023/12/27 14:42:48;;;;;;;16.10;6.70;;;;;;;4.27;100.00;101063.73;218214;1282;139828;-88
2023/12/27 14:47:49;;;;;;;19.60;8.60;;;;;;;4.15;100.00;101058.39;218802;1282;138447;-88
2023/12/27 14:52:50;;;;;;;21.50;9.90;;;;;;;3.97;100.00;101059.16;216215;1282;139341;-87
2023/12/27 14:57:50;;;;;;;24.40;10.30;;;;;;;3.81;100.00;101064.26;218677;1285;95240;-88
2023/12/27 15:02:51;;;;;;;22.90;11.00;;;;;;;3.66;100.00;101066.80;218449;1282;139548;-86
2023/12/27 15:07:52;;;;;;;23.50;10.30;;;;;;;3.54;100.00;101067.52;219071;1282;139607;-87
2023/12/27 15:12:52;;;;;;;32.00;11.70;;;;;;;3.42;100.00;101067.16;218238;1285;140056;-88
2023/12/27 15:17:53;;;;;;;44.90;15.60;;;;;;;3.34;100.00;101064.79;218847;1283;138535;-88
2023/12/27 15:23:00;;;;;;;45.90;17.00;;;;;;;3.28;100.00;101064.80;218329;1285;138701;-87
2023/12/27 15:28:06;;;;;;;30.20;12.80;;;;;;;3.19;100.00;101072.30;219189;1282;105676;-87
2023/12/27 15:33:06;;;;;;;34.90;14.80;;;;;;;3.13;100.00;101077.00;218445;1282;139714;-87
2023/12/27 15:38:06;;;;;;;35.20;15.00;;;;;;;3.05;100.00;101079.32;219284;1282;138334;-87
2023/12/27 15:43:07;;;;;;;33.10;15.00;;;;;;;2.93;100.00;101084.19;218431;1283;140006;-88
2023/12/27 15:48:07;;;;;;;32.00;14.00;;;;;;;2.82;100.00;101091.11;218875;1282;138965;-87
2023/12/27 15:53:10;;;;;;;46.80;17.00;;;;;;;2.72;100.00;101091.06;218489;1282;140200;-87
2023/12/27 15:58:10;;;;;;;39.20;13.70;;;;;;;2.62;100.00;101092.23;219244;1282;93539;-88
2023/12/27 16:03:11;;;;;;;49.60;17.90;;;;;;;2.53;100.00;101096.87;218593;1283;139359;-87
2023/12/27 16:08:12;;;;;;;45.40;17.30;;;;;;;2.42;100.00;101089.84;219194;1282;138381;-87
2023/12/27 16:13:14;;;;;;;39.00;15.80;;;;;;;2.28;100.00;101091.25;218289;1283;140360;-87
2023/12/27 16:18:16;;;;;;;44.70;16.70;;;;;;;2.16;100.00;101099.24;218961;1282;139030;-87
2023/12/27 16:23:17;;;;;;;41.30;18.10;;;;;;;2.04;100.00;101095.42;218294;1285;139455;-88
2023/12/27 16:28:17;;;;;;;36.80;16.90;;;;;;;1.95;100.00;101087.26;218818;1287;94242;-87
2023/12/27 16:33:18;;;;;;;65.30;24.60;;;;;;;1.86;100.00;101087.92;218209;1283;139633;-88
2023/12/27 16:38:18;;;;;;;87.50;34.50;;;;;;;1.83;100.00;101091.59;216257;1285;139121;-87
2023/12/27 16:43:21;;;;;;;52.80;25.70;;;;;;;1.79;100.00;101090.05;218168;1284;139577;-88
2023/12/27 16:48:22;;;;;;;74.20;32.10;;;;;;;1.73;100.00;101076.98;218991;1282;138376;-87
2023/12/27 16:53:23;;;;;;;52.90;24.90;;;;;;;1.70;100.00;101079.27;218397;1282;139345;-88
2023/12/27 16:58:24;;;;;;;60.80;29.30;;;;;;;1.65;100.00;101076.55;219230;1282;94136;-87
2023/12/27 17:03:24;;;;;;;52.40;26.40;;;;;;;1.63;100.00;101058.89;218549;1282;138996;-87
2023/12/27 17:08:26;;;;;;;51.60;25.20;;;;;;;1.57;100.00;101056.15;219237;1282;138497;-88
2023/12/27 17:13:27;;;;;;;51.10;26.70;;;;;;;1.50;100.00;101050.92;218564;1285;139493;-88
2023/12/27 17:18:30;;;;;;;77.00;35.70;;;;;;;1.43;100.00;101042.97;218911;1285;139058;-86
2023/12/27 17:23:30;;;;;;;74.10;38.30;;;;;;;1.36;100.00;101027.39;218230;1282;140534;-87
2023/12/27 17:28:31;;;;;;;77.90;38.60;;;;;;;1.33;100.00;101025.94;219323;1282;93658;-87
2023/12/27 17:33:31;;;;;;;62.70;32.50;;;;;;;1.28;100.00;101023.81;218649;1282;139559;-87
2023/12/27 17:38:31;;;;;;;62.60;33.50;;;;;;;1.23;100.00;101018.71;219230;1284;139468;-87
2023/12/27 17:43:32;;;;;;;72.40;37.60;;;;;;;1.19;100.00;101028.15;218518;1285;139707;-86
2023/12/27 17:48:32;;;;;;;66.30;35.30;;;;;;;1.14;100.00;101031.89;218966;1287;137331;-87
2023/12/27 17:53:33;;;;;;;77.50;36.40;;;;;;;1.08;100.00;101031.94;218637;1286;139643;-87
2023/12/27 17:58:33;;;;;;;80.60;37.00;;;;;;;1.01;100.00;101030.60;219004;1285;95150;-87
2023/12/27 18:03:33;;;;;;;80.80;39.50;;;;;;;0.94;100.00;101015.88;218298;1283;139485;-87
2023/12/27 18:08:37;;;;;;;82.00;38.70;;;;;;;0.90;100.00;100998.83;218873;1283;138771;-87
2023/12/27 18:13:38;;;;;;;73.30;36.80;;;;;;;0.89;100.00;100993.11;218202;1284;139906;-87
2023/12/27 18:18:38;;;;;;;75.60;35.40;;;;;;;0.85;100.00;100971.30;217978;1286;140759;-86
2023/12/27 18:23:39;;;;;;;84.80;35.30;;;;;;;0.81;100.00;100970.89;216575;1283;139216;-87
2023/12/27 18:28:39;;;;;;;64.10;31.20;;;;;;;0.76;100.00;100978.66;218986;1282;94926;-87
2023/12/27 18:33:40;;;;;;;70.50;30.90;;;;;;;0.67;100.00;100981.64;218658;1287;139190;-87
2023/12/27 18:38:40;;;;;;;67.90;30.00;;;;;;;0.62;100.00;100980.02;219179;1283;138491;-87
2023/12/27 18:43:41;;;;;;;298.90;99.30;;;;;;;0.61;100.00;100985.21;218376;1283;139513;-86
2023/12/27 18:48:41;;;;;;;162.10;61.50;;;;;;;0.61;100.00;100977.70;218649;1283;139041;-87
2023/12/27 18:53:42;;;;;;;127.90;47.70;;;;;;;0.60;100.00;100963.85;218468;1287;140224;-87
2023/12/27 18:58:42;;;;;;;132.80;50.50;;;;;;;0.59;100.00;100960.66;219126;1282;139349;-87
2023/12/27 19:03:43;;;;;;;144.70;54.50;;;;;;;0.61;100.00;100971.41;218599;1283;139339;-86
2023/12/27 19:08:43;;;;;;;201.40;64.40;;;;;;;0.63;100.00;100978.68;219160;1286;139051;-86
2023/12/27 19:13:44;;;;;;;96.80;39.90;;;;;;;0.66;100.00;100970.02;218182;1283;140036;-87
2023/12/27 19:18:48;;;;;;;79.20;34.00;;;;;;;0.71;100.00;100950.91;218771;1285;139208;-86
2023/12/27 19:23:48;;;;;;;101.20;39.70;;;;;;;0.78;100.00;100948.02;218044;1283;140306;-86
2023/12/27 19:28:52;;;;;;;114.80;41.20;;;;;;;0.84;100.00;100937.50;218796;1283;138773;-86
2023/12/27 19:33:53;;;;;;;127.40;43.40;;;;;;;0.93;100.00;100929.52;218380;1283;139899;-86
2023/12/27 19:38:53;;;;;;;165.10;48.70;;;;;;;1.00;100.00;100924.45;219037;1283;139020;-87
2023/12/27 19:43:54;;;;;;;127.10;44.60;;;;;;;1.06;100.00;100912.79;218618;1282;140754;-86
2023/12/27 19:48:54;;;;;;;222.70;79.00;;;;;;;1.12;100.00;100897.20;218943;1283;138833;-88
2023/12/27 19:53:55;;;;;;;423.20;110.90;;;;;;;1.18;100.00;100880.44;218519;1283;140264;-88
2023/12/27 19:58:56;;;;;;;163.30;52.90;;;;;;;1.22;100.00;100879.37;218886;1282;139818;-87
2023/12/27 20:03:56;;;;;;;92.90;37.40;;;;;;;1.25;100.00;100900.49;217015;1282;139901;-86
2023/12/27 20:08:57;;;;;;;118.70;45.40;;;;;;;1.25;100.00;100901.64;217523;1287;139046;-87
2023/12/27 20:13:58;;;;;;;102.20;44.60;;;;;;;1.26;100.00;100893.93;218121;1285;139869;-87
2023/12/27 20:18:59;;;;;;;236.10;91.20;;;;;;;1.24;100.00;100870.76;218992;1282;138962;-86
2023/12/27 20:23:59;;;;;;;128.60;51.10;;;;;;;1.22;100.00;100845.64;218253;1282;139775;-87
2023/12/27 20:28:59;;;;;;;109.00;39.30;;;;;;;1.20;100.00;100819.57;218993;1283;139884;-87
2023/12/27 20:34:00;;;;;;;97.60;35.70;;;;;;;1.17;100.00;100806.85;218548;1284;140319;-87
2023/12/27 20:39:02;;;;;;;107.50;44.00;;;;;;;1.12;100.00;100801.70;218776;1283;138562;-87
2023/12/27 20:44:02;;;;;;;104.30;38.80;;;;;;;1.12;100.00;100808.95;218447;1283;140146;-87
2023/12/27 20:49:03;;;;;;;135.80;59.20;;;;;;;1.12;100.00;100830.52;218900;1285;138948;-87
2023/12/27 20:54:04;;;;;;;77.40;33.60;;;;;;;1.12;100.00;100840.22;218231;1283;139713;-87
2023/12/27 20:59:08;;;;;;;78.60;33.20;;;;;;;1.10;100.00;100822.34;218760;1283;139232;-86
2023/12/27 21:04:09;;;;;;;83.50;37.20;;;;;;;1.09;100.00;100802.47;218282;1283;139481;-86
2023/12/27 21:09:10;;;;;;;76.70;31.60;;;;;;;1.11;100.00;100803.88;218477;1283;138349;-87
2023/12/27 21:14:11;;;;;;;75.50;31.50;;;;;;;1.11;100.00;100773.73;218504;1283;140146;-87
2023/12/27 21:19:13;;;;;;;84.70;32.60;;;;;;;1.12;100.00;100767.04;218856;1282;139108;-87
2023/12/27 21:24:14;;;;;;;258.00;76.10;;;;;;;1.16;100.00;100798.49;218134;1287;138955;-87
2023/12/27 21:29:14;;;;;;;67.40;28.00;;;;;;;1.19;100.00;100758.86;218755;1282;138716;-87
2023/12/27 21:34:15;;;;;;;55.10;22.70;;;;;;;1.23;100.00;100725.63;218744;1283;140503;-87
2023/12/27 21:39:15;;;;;;;42.30;18.40;;;;;;;1.29;100.00;100731.45;218998;1284;138490;-85
2023/12/27 21:44:15;;;;;;;42.60;19.40;;;;;;;1.36;100.00;100736.27;218341;1282;271261;-83
2023/12/27 21:49:16;;;;;;;54.90;20.60;;;;;;;1.43;100.00;100743.86;216994;1283;139233;-87
2023/12/27 21:54:16;;;;;;;56.30;20.60;;;;;;;1.48;100.00;100751.17;218064;1282;140747;-87
2023/12/27 21:59:17;;;;;;;48.80;18.50;;;;;;;1.52;100.00;100735.18;219016;1282;139054;-87
2023/12/27 22:04:17;;;;;;;44.20;17.40;;;;;;;1.55;100.00;100719.56;218692;1282;139505;-87
2023/12/27 22:09:17;;;;;;;46.50;19.70;;;;;;;1.58;100.00;100710.39;218761;1282;138911;-89
2023/12/27 22:14:18;;;;;;;44.60;18.70;;;;;;;1.59;100.00;100702.64;218572;1282;139521;-87
2023/12/27 22:19:19;;;;;;;43.10;16.40;;;;;;;1.61;100.00;100704.92;218907;1283;138583;-88
2023/12/27 22:24:19;;;;;;;35.60;15.00;;;;;;;1.65;100.00;100703.54;218170;1282;139428;-88
2023/12/27 22:29:20;;;;;;;43.30;16.60;;;;;;;1.67;100.00;100693.56;219112;1285;139443;-88